Time;durP1;ratioP1;P1;durP2;ratioP2;P2;SDS_P1;SDS_P2;PMS_P1;PMS_P2;Temp;Humidity;BMP_temperature;BMP_pressure;BME280_temperature;BME280_humidity;BME280_pressure;Samples;Min_cycle;Max_cycle;Signal;HPM_P1;HPM_P2
2023/06/07 00:01:15;;;;;;;12.43;7.18;;;;;;;16.70;60.48;102308.63;5101861;28;20081;-79
2023/06/07 00:03:41;;;;;;;14.75;7.28;;;;;;;16.65;60.92;102302.41;5111468;28;20034;-81
2023/06/07 00:06:09;;;;;;;15.15;7.35;;;;;;;16.46;61.31;102297.78;5113787;28;20027;-80
2023/06/07 00:08:43;;;;;;;15.20;7.18;;;;;;;16.54;61.01;102304.00;5111327;28;20028;-79
2023/06/07 00:11:09;;;;;;;16.45;7.32;;;;;;;16.55;61.25;102301.38;5116663;28;20046;-79
2023/06/07 00:13:38;;;;;;;14.88;7.45;;;;;;;16.27;61.94;102301.94;5116061;28;20024;-78
2023/06/07 00:16:03;;;;;;;13.48;6.93;;;;;;;16.52;61.14;102297.84;5117652;28;20024;-78
2023/06/07 00:18:29;;;;;;;14.05;7.07;;;;;;;16.44;61.38;102303.03;5117697;28;20030;-79
2023/06/07 00:21:04;;;;;;;16.00;7.05;;;;;;;16.43;61.51;102303.00;5118275;28;20099;-79
2023/06/07 00:23:30;;;;;;;14.50;6.90;;;;;;;16.31;61.73;102306.38;5117732;28;20038;-79
2023/06/07 00:26:05;;;;;;;13.48;6.95;;;;;;;16.58;61.08;102298.81;5118340;28;20051;-79
2023/06/07 00:28:39;;;;;;;13.18;6.82;;;;;;;16.30;61.92;102293.19;5103267;28;20062;-81
2023/06/07 00:31:04;;;;;;;;;;;;;;;16.16;62.20;102296.50;5099671;28;20126;-78
2023/06/07 00:33:33;;;;;;;12.68;6.60;;;;;;;16.38;61.62;102295.06;5101801;28;19912;-80
2023/06/07 00:36:05;;;;;;;11.73;6.57;;;;;;;16.19;62.24;102298.31;5104840;28;20091;-80
2023/06/07 00:38:33;;;;;;;12.50;6.57;;;;;;;16.28;62.05;102302.81;5103728;28;20028;-81
2023/06/07 00:40:58;;;;;;;12.85;7.03;;;;;;;16.30;61.65;102298.44;5102377;28;20489;-80
2023/06/07 00:43:26;;;;;;;13.93;7.10;;;;;;;16.20;62.21;102290.44;5113163;28;20202;-80
2023/06/07 00:45:55;;;;;;;12.15;6.60;;;;;;;16.27;61.85;102295.78;5118071;28;20115;-79
2023/06/07 00:48:23;;;;;;;12.88;6.40;;;;;;;16.18;62.18;102299.16;5117484;28;20051;-79
2023/06/07 00:50:49;;;;;;;13.75;7.13;;;;;;;15.89;62.93;102296.16;5099166;28;20401;-79
2023/06/07 00:53:16;;;;;;;13.88;6.85;;;;;;;16.16;62.57;102293.03;5098238;28;20036;-79
2023/06/07 00:55:42;;;;;;;16.67;7.07;;;;;;;16.20;62.41;102295.72;5099906;28;20032;-81
2023/06/07 00:58:07;;;;;;;13.63;6.80;;;;;;;16.23;62.12;102295.72;5100531;28;20032;-81
2023/06/07 01:00:33;;;;;;;12.07;6.60;;;;;;;16.35;61.62;102289.72;5099207;28;20444;-79
2023/06/07 01:02:58;;;;;;;13.35;6.75;;;;;;;16.24;61.98;102296.63;5100242;28;20043;-80
2023/06/07 01:05:24;;;;;;;13.20;6.88;;;;;;;16.30;61.95;102294.06;5100653;28;20035;-80
2023/06/07 01:07:53;;;;;;;13.48;6.95;;;;;;;16.27;61.79;102294.03;5100604;28;20033;-79
2023/06/07 01:10:19;;;;;;;14.48;7.13;;;;;;;16.28;61.82;102287.91;5100698;28;20055;-80
2023/06/07 01:12:45;;;;;;;12.13;6.68;;;;;;;16.21;62.20;102288.69;5100916;28;20137;-79
2023/06/07 01:15:12;;;;;;;14.02;6.65;;;;;;;16.32;61.84;102299.34;5101911;28;20098;-80
2023/06/07 01:17:42;;;;;;;13.38;7.07;;;;;;;16.34;61.79;102293.25;5100084;28;20032;-79
2023/06/07 01:20:19;;;;;;;13.88;7.07;;;;;;;16.36;61.85;102293.25;5101213;28;20043;-81
2023/06/07 01:22:45;;;;;;;15.95;6.93;;;;;;;16.39;61.68;102293.31;5098572;28;20105;-80
2023/06/07 01:25:17;;;;;;;11.25;6.47;;;;;;;16.07;62.50;102291.16;5097799;28;20047;-81
2023/06/07 01:27:45;;;;;;;15.23;6.75;;;;;;;15.97;62.48;102297.16;5093081;28;20496;-81
2023/06/07 01:30:14;;;;;;;11.75;6.63;;;;;;;16.24;62.12;102293.97;5101161;28;20055;-80
2023/06/07 01:32:46;;;;;;;13.27;7.03;;;;;;;16.16;62.02;102290.41;5106715;28;20039;-80
2023/06/07 01:35:13;;;;;;;12.45;6.60;;;;;;;16.04;62.23;102288.47;5095149;28;20492;-80
2023/06/07 01:37:40;;;;;;;11.27;6.45;;;;;;;16.11;62.14;102294.69;5090936;28;20043;-79
2023/06/07 01:40:08;;;;;;;11.07;6.75;;;;;;;15.89;63.04;102285.63;5094541;28;20046;-79
2023/06/07 01:42:44;;;;;;;16.67;6.82;;;;;;;16.02;62.69;102290.19;5094213;28;20420;-78
2023/06/07 01:45:16;;;;;;;14.48;7.10;;;;;;;15.90;63.08;102289.16;5095094;28;20097;-81
2023/06/07 01:47:44;;;;;;;13.32;6.72;;;;;;;15.90;63.01;102287.41;5094541;28;20488;-80
2023/06/07 01:50:25;;;;;;;15.50;6.75;;;;;;;15.91;63.06;102278.66;5097008;28;20036;-79
2023/06/07 01:52:57;;;;;;;13.15;6.22;;;;;;;15.99;62.57;102284.88;5095760;28;20086;-79
2023/06/07 01:55:26;;;;;;;13.18;6.40;;;;;;;16.02;62.61;102286.69;5097719;28;20504;-78
2023/06/07 01:58:32;;;;;;;11.05;6.88;;;;;;;16.04;62.09;102288.47;5096028;28;20032;-80
2023/06/07 02:01:08;;;;;;;12.73;6.40;;;;;;;15.95;62.47;102290.09;5102217;28;20103;-79
2023/06/07 02:03:55;;;;;;;13.80;6.15;;;;;;;15.67;63.54;102286.19;5109705;28;20040;-79
2023/06/07 02:06:32;;;;;;;14.07;7.00;;;;;;;15.87;63.04;102284.72;5116683;28;20091;-80
2023/06/07 02:09:06;;;;;;;11.98;6.00;;;;;;;16.02;62.63;102281.44;5103193;28;20067;-80
2023/06/07 02:11:33;;;;;;;13.73;6.45;;;;;;;15.94;62.75;102273.44;5101088;28;20043;-79
2023/06/07 02:14:02;;;;;;;17.85;6.65;;;;;;;15.89;62.69;102292.63;5098941;28;20212;-79
2023/06/07 02:16:35;;;;;;;14.88;6.70;;;;;;;16.09;62.46;102288.53;5096747;28;20051;-81
2023/06/07 02:19:07;;;;;;;13.85;6.40;;;;;;;16.00;62.52;102289.28;5098576;28;20082;-80
2023/06/07 02:21:36;;;;;;;15.80;6.63;;;;;;;16.09;62.50;102283.28;5108472;28;20036;-79
2023/06/07 02:24:03;;;;;;;12.40;6.20;;;;;;;15.87;63.15;102279.47;5113722;28;20020;-79
2023/06/07 02:26:28;;;;;;;12.30;6.10;;;;;;;15.97;63.12;102275.22;5109623;28;20028;-79
2023/06/07 02:28:54;;;;;;;12.82;6.03;;;;;;;15.96;63.03;102286.59;5101680;28;20066;-80
2023/06/07 02:31:22;;;;;;;8.57;5.57;;;;;;;16.24;62.48;102278.19;5100447;28;20374;-80
2023/06/07 02:33:50;;;;;;;12.65;6.35;;;;;;;16.24;62.31;102286.97;5101442;28;20047;-79
2023/06/07 02:36:20;;;;;;;14.32;5.60;;;;;;;16.18;62.58;102275.50;5102471;28;20126;-79
2023/06/07 02:38:52;;;;;;;10.48;5.63;;;;;;;16.44;61.94;102274.06;5098360;28;20036;-80
2023/06/07 02:41:23;;;;;;;11.15;5.78;;;;;;;16.27;62.11;102280.00;5105638;28;20539;-79
2023/06/07 02:43:51;;;;;;;15.27;5.85;;;;;;;15.98;63.35;102277.84;5103223;28;20024;-80
2023/06/07 02:46:17;;;;;;;13.43;5.88;;;;;;;16.14;62.32;102266.69;5105103;28;20058;-79
2023/06/07 02:48:45;;;;;;;11.88;5.88;;;;;;;16.27;62.24;102266.84;5107595;28;20036;-79
2023/06/07 02:51:13;;;;;;;13.45;6.03;;;;;;;16.26;62.41;102267.69;5111688;28;20039;-79
2023/06/07 02:53:38;;;;;;;14.35;5.72;;;;;;;15.95;63.23;102266.41;5112243;28;20040;-79
2023/06/07 02:56:04;;;;;;;13.05;5.75;;;;;;;16.13;62.87;102271.91;5112373;28;20426;-81
2023/06/07 02:58:29;;;;;;;11.60;6.13;;;;;;;16.22;62.70;102269.41;5110997;28;20060;-80
2023/06/07 03:00:55;;;;;;;12.38;6.03;;;;;;;16.24;62.39;102272.94;5110944;28;20028;-79
2023/06/07 03:03:21;;;;;;;15.10;6.05;;;;;;;16.22;62.81;102272.91;5108981;28;20020;-79
2023/06/07 03:05:52;;;;;;;17.17;5.85;;;;;;;16.12;63.18;102272.78;5113827;28;20043;-79
2023/06/07 03:08:18;;;;;;;11.27;5.97;;;;;;;16.13;63.11;102278.06;5115269;28;20020;-80
2023/06/07 03:10:44;;;;;;;13.25;6.30;;;;;;;16.32;62.75;102273.03;5115169;28;20016;-79
2023/06/07 03:13:09;;;;;;;13.88;6.15;;;;;;;16.08;63.37;102265.72;5116336;28;20104;-79
2023/06/07 03:15:35;;;;;;;12.88;6.20;;;;;;;16.39;62.48;102270.50;5114526;28;20044;-80
2023/06/07 03:18:04;;;;;;;13.52;6.07;;;;;;;16.52;62.00;102261.88;5114908;28;20084;-80
2023/06/07 03:20:34;;;;;;;15.50;5.90;;;;;;;16.55;61.76;102268.91;5111510;28;20016;-80
2023/06/07 03:23:04;;;;;;;11.52;6.00;;;;;;;16.45;62.24;102272.31;5110190;28;20048;-81
2023/06/07 03:25:30;;;;;;;13.80;5.97;;;;;;;16.44;62.53;102270.53;5109182;28;20049;-81
2023/06/07 03:27:55;;;;;;;17.27;6.68;;;;;;;16.00;63.69;102270.00;5109864;28;20103;-80
2023/06/07 03:30:23;;;;;;;12.63;5.75;;;;;;;16.14;63.55;102269.31;5105005;28;20036;-80
2023/06/07 03:32:52;;;;;;;12.48;6.05;;;;;;;16.42;62.49;102267.88;5104341;28;20036;-79
2023/06/07 03:35:18;;;;;;;11.82;5.97;;;;;;;16.61;61.91;102264.63;5104952;28;20040;-79
2023/06/07 03:37:46;;;;;;;13.02;5.95;;;;;;;16.49;61.97;102274.09;5115540;28;20016;-79
2023/06/07 03:40:12;;;;;;;16.08;6.00;;;;;;;16.59;61.41;102265.44;5117324;28;20060;-79
2023/06/07 03:42:38;;;;;;;13.30;6.40;;;;;;;16.58;61.42;102272.47;5113941;28;20057;-81
2023/06/07 03:45:04;;;;;;;12.80;6.25;;;;;;;16.49;61.88;102279.38;5109659;28;20027;-80
2023/06/07 03:47:30;;;;;;;14.70;6.55;;;;;;;16.48;62.43;102277.59;5115037;28;20054;-80
2023/06/07 03:49:55;;;;;;;13.65;6.20;;;;;;;16.46;62.05;102274.09;5116709;28;20310;-78
2023/06/07 03:52:23;;;;;;;11.48;6.13;;;;;;;16.35;63.00;102270.41;5112724;28;20028;-80
2023/06/07 03:54:48;;;;;;;12.02;5.80;;;;;;;16.69;62.06;102279.63;5108499;28;20040;-82
2023/06/07 03:57:17;;;;;;;16.35;6.43;;;;;;;16.49;62.53;102272.38;5111536;28;20036;-81
2023/06/07 03:59:42;;;;;;;12.38;5.85;;;;;;;16.71;61.71;102268.22;5111792;28;20036;-81
2023/06/07 04:02:07;;;;;;;14.30;6.18;;;;;;;16.63;61.81;102268.19;5105508;28;20029;-81
2023/06/07 04:04:35;;;;;;;14.98;6.68;;;;;;;16.69;61.42;102262.09;5100109;28;20404;-81
2023/06/07 04:07:07;;;;;;;15.40;6.03;;;;;;;16.70;61.55;102274.38;5100630;28;20093;-80
2023/06/07 04:09:35;;;;;;;12.30;6.07;;;;;;;16.61;61.92;102269.00;5102020;28;20046;-81
2023/06/07 04:12:01;;;;;;;12.18;6.05;;;;;;;16.87;61.37;102274.56;5099833;28;20035;-79
2023/06/07 04:14:27;;;;;;;11.52;6.07;;;;;;;16.88;61.17;102273.69;5102208;28;20513;-79
2023/06/07 04:16:52;;;;;;;12.07;5.82;;;;;;;17.03;60.66;102274.69;5102039;28;20032;-81
2023/06/07 04:19:17;;;;;;;11.30;5.80;;;;;;;16.96;60.89;102270.25;5102966;28;20028;-79
2023/06/07 04:21:43;;;;;;;13.98;5.97;;;;;;;16.80;61.38;102278.00;5103637;28;20028;-80
2023/06/07 04:24:08;;;;;;;14.10;5.85;;;;;;;16.72;61.25;102274.38;5102653;28;20038;-80
2023/06/07 04:26:35;;;;;;;15.02;6.00;;;;;;;16.81;61.04;102278.00;5099906;28;20371;-79
2023/06/07 04:29:04;;;;;;;14.02;6.30;;;;;;;16.99;60.59;102278.19;5108891;28;20043;-80
2023/06/07 04:31:34;;;;;;;13.48;6.40;;;;;;;16.77;61.16;102283.25;5108093;28;20043;-79
2023/06/07 04:34:01;;;;;;;12.93;5.65;;;;;;;16.89;60.86;102284.25;5113653;28;20024;-81
2023/06/07 04:36:29;;;;;;;11.48;5.90;;;;;;;16.78;60.89;102272.69;5112390;28;20028;-80
2023/06/07 04:38:55;;;;;;;17.27;5.95;;;;;;;16.96;60.60;102277.25;5113876;28;20028;-80
2023/06/07 04:41:28;;;;;;;10.82;6.00;;;;;;;16.80;61.05;102278.88;5103092;28;20035;-80
2023/06/07 04:43:54;;;;;;;14.05;5.78;;;;;;;16.86;60.57;102278.06;5106029;28;20040;-81
2023/06/07 04:46:19;;;;;;;9.75;5.53;;;;;;;17.16;59.72;102283.59;5110599;28;20100;-80
2023/06/07 04:48:51;;;;;;;13.55;6.20;;;;;;;16.83;60.60;102285.94;5105935;28;20127;-81
2023/06/07 04:51:20;;;;;;;11.80;5.72;;;;;;;17.27;59.33;102286.31;5103587;28;20044;-81
2023/06/07 04:53:46;;;;;;;15.38;5.80;;;;;;;16.79;60.44;102294.66;5106108;28;20043;-80
2023/06/07 04:56:15;;;;;;;13.07;5.95;;;;;;;16.80;60.86;102291.16;5099297;28;20032;-80
2023/06/07 04:58:40;;;;;;;14.07;5.78;;;;;;;16.87;60.52;102287.72;5100070;28;20123;-80
2023/06/07 05:01:09;;;;;;;10.60;5.25;;;;;;;17.16;59.85;102291.50;5097593;28;20066;-80
2023/06/07 05:03:41;;;;;;;12.05;5.40;;;;;;;17.16;59.96;102288.88;5111143;28;20032;-80
2023/06/07 05:06:06;;;;;;;12.57;5.88;;;;;;;17.32;59.39;102287.28;5116383;28;20028;-80
2023/06/07 05:08:31;;;;;;;11.60;5.53;;;;;;;17.12;59.63;102284.47;5104668;28;20458;-81
2023/06/07 05:10:57;;;;;;;12.25;5.07;;;;;;;17.35;59.24;102285.53;5100147;28;20430;-81
2023/06/07 05:13:22;;;;;;;11.77;5.13;;;;;;;17.19;59.56;102282.75;5107202;28;20051;-82
2023/06/07 05:15:50;;;;;;;13.20;5.80;;;;;;;17.49;58.96;102284.75;5105308;28;20147;-80
2023/06/07 05:18:18;;;;;;;10.60;4.85;;;;;;;18.05;58.08;102285.16;5106697;28;20039;-80
2023/06/07 05:20:44;;;;;;;13.68;5.13;;;;;;;17.97;56.86;102286.84;5102344;28;20127;-81
2023/06/07 05:23:19;;;;;;;12.75;4.80;;;;;;;17.97;56.70;102290.38;5100471;28;20058;-82
2023/06/07 05:25:45;;;;;;;8.88;4.57;;;;;;;17.99;56.20;102287.75;5100564;28;20043;-80
2023/06/07 05:28:17;;;;;;;8.90;4.43;;;;;;;17.71;56.57;102286.69;5103692;28;20058;-81
2023/06/07 05:30:42;;;;;;;10.73;4.38;;;;;;;18.11;55.97;102290.47;5102750;28;20028;-81
2023/06/07 05:33:08;;;;;;;10.60;4.20;;;;;;;18.46;54.96;102286.19;5108674;28;20092;-80
2023/06/07 05:35:36;;;;;;;14.00;4.38;;;;;;;18.76;54.04;102290.72;5109532;28;20055;-78
2023/06/07 05:38:01;;;;;;;10.55;4.22;;;;;;;18.57;53.68;102287.13;5116645;28;20039;-79
2023/06/07 05:40:27;;;;;;;12.23;4.10;;;;;;;18.76;53.27;102293.34;5117240;28;20028;-80
2023/06/07 05:42:54;;;;;;;12.77;4.22;;;;;;;18.66;53.63;102285.41;5116321;28;20032;-80
2023/06/07 05:45:23;;;;;;;11.05;4.55;;;;;;;19.42;51.65;102281.94;5106285;28;20252;-80
2023/06/07 05:47:54;;;;;;;10.32;4.05;;;;;;;20.59;48.86;102286.06;5110205;28;20051;-80
2023/06/07 05:50:23;;;;;;;9.93;4.43;;;;;;;20.59;47.42;102283.41;5111063;28;20028;-80
2023/06/07 05:52:57;;;;;;;8.75;4.15;;;;;;;21.16;46.42;102279.53;5100598;28;20358;-80
2023/06/07 05:55:26;;;;;;;10.43;4.20;;;;;;;21.74;45.28;102285.16;5099333;28;20028;-80
2023/06/07 05:58:12;;;;;;;17.63;4.25;;;;;;;22.01;43.22;102284.03;5099534;28;20028;-80
2023/06/07 06:00:37;;;;;;;9.70;3.92;;;;;;;22.20;43.25;102287.34;5100341;28;20060;-81
2023/06/07 06:03:12;;;;;;;9.52;3.90;;;;;;;22.05;43.82;102279.53;5099968;28;20039;-79
2023/06/07 06:05:37;;;;;;;14.65;4.22;;;;;;;22.36;42.53;102278.25;5098314;28;20036;-81
2023/06/07 06:08:09;;;;;;;10.82;3.90;;;;;;;22.79;41.71;102283.00;5098772;28;20096;-80
2023/06/07 06:10:34;;;;;;;13.02;3.97;;;;;;;23.77;40.29;102280.50;5098023;28;20036;-80
2023/06/07 06:13:00;;;;;;;10.57;3.60;;;;;;;24.67;37.95;102277.72;5101572;28;20038;-82
2023/06/07 06:15:25;;;;;;;8.48;3.28;;;;;;;25.86;36.17;102275.59;5100572;28;20066;-82
2023/06/07 06:17:54;;;;;;;8.32;3.85;;;;;;;25.54;36.38;102280.06;5099723;28;20059;-82
2023/06/07 06:20:25;;;;;;;9.77;3.55;;;;;;;25.05;36.41;102282.19;5099937;28;20055;-81
2023/06/07 06:22:56;;;;;;;8.52;3.45;;;;;;;25.15;36.70;102284.59;5098705;28;20661;-82
2023/06/07 06:25:24;;;;;;;13.80;3.72;;;;;;;25.69;35.65;102285.00;5101066;28;20436;-81
2023/06/07 06:27:56;;;;;;;10.82;3.72;;;;;;;23.98;37.93;102288.03;5096831;28;20040;-80
2023/06/07 06:30:23;;;;;;;14.10;4.07;;;;;;;22.01;42.55;102291.09;5103721;28;20146;-80
2023/06/07 06:32:48;;;;;;;9.63;4.47;;;;;;;21.70;43.61;102295.84;5104782;28;20038;-80
2023/06/07 06:35:14;;;;;;;10.07;4.30;;;;;;;21.90;43.67;102300.91;5113144;28;20036;-80
2023/06/07 06:37:45;;;;;;;10.48;4.70;;;;;;;21.88;43.60;102300.94;5109869;28;20063;-79
2023/06/07 06:40:11;;;;;;;10.77;4.88;;;;;;;21.68;44.19;102300.25;5109265;28;20036;-80
2023/06/07 06:42:37;;;;;;;11.52;4.25;;;;;;;21.75;44.63;102305.50;5105727;28;20047;-81
2023/06/07 06:45:03;;;;;;;14.30;4.40;;;;;;;21.92;44.97;102307.09;5112125;28;20032;-80
2023/06/07 06:47:28;;;;;;;13.63;4.25;;;;;;;23.00;41.89;102310.16;5109968;28;20058;-81
2023/06/07 06:49:54;;;;;;;9.77;3.90;;;;;;;24.12;40.04;102296.66;5111237;28;20016;-81
2023/06/07 06:52:19;;;;;;;10.48;3.88;;;;;;;24.40;38.74;102302.31;5108702;28;20036;-81
2023/06/07 06:54:47;;;;;;;12.13;3.90;;;;;;;25.29;37.76;102295.81;5097112;28;20043;-79
2023/06/07 06:57:16;;;;;;;10.65;3.80;;;;;;;25.97;35.45;102302.03;5094304;28;20135;-80
2023/06/07 06:59:41;;;;;;;14.90;3.78;;;;;;;25.38;36.78;102292.91;5092379;28;20132;-80
2023/06/07 07:02:06;;;;;;;11.32;3.95;;;;;;;25.53;36.84;102299.66;5096029;28;20495;-81
2023/06/07 07:04:32;;;;;;;11.93;4.20;;;;;;;25.29;36.52;102295.81;5094264;28;20036;-80
2023/06/07 07:06:57;;;;;;;13.38;3.67;;;;;;;25.98;35.88;102303.81;5095022;28;20039;-81
2023/06/07 07:09:22;;;;;;;10.80;3.50;;;;;;;26.89;35.16;102308.25;5094399;28;20481;-80
2023/06/07 07:11:48;;;;;;;11.48;3.78;;;;;;;27.50;32.85;102298.19;5094330;28;20427;-80
2023/06/07 07:14:13;;;;;;;11.52;3.75;;;;;;;26.54;35.61;102304.81;5098394;28;20147;-81
2023/06/07 07:16:41;;;;;;;11.85;3.88;;;;;;;27.26;33.96;102300.78;5098437;28;20059;-81
2023/06/07 07:19:19;;;;;;;13.25;4.22;;;;;;;26.73;33.60;102305.13;5099477;28;20059;-80
2023/06/07 07:21:47;;;;;;;11.13;3.90;;;;;;;26.56;34.97;102303.00;5092218;28;20036;-81
2023/06/07 07:24:15;;;;;;;10.77;3.80;;;;;;;27.19;33.15;102303.72;5098937;28;20028;-81
2023/06/07 07:26:41;;;;;;;12.35;3.80;;;;;;;27.23;33.16;102302.66;5084215;28;20037;-81
2023/06/07 07:29:15;;;;;;;10.27;3.80;;;;;;;27.93;32.11;102303.81;5084966;28;20472;-80
2023/06/07 07:31:41;;;;;;;8.27;3.53;;;;;;;27.84;32.22;102294.28;5097015;28;20036;-80
2023/06/07 07:34:08;;;;;;;8.73;3.70;;;;;;;27.48;32.42;102305.38;5080819;28;20032;-80
2023/06/07 07:36:33;;;;;;;9.18;3.72;;;;;;;27.04;33.64;102295.25;5087854;28;20033;-80
2023/06/07 07:39:04;;;;;;;11.88;4.03;;;;;;;26.57;34.90;102307.44;5107256;28;20032;-78
2023/06/07 07:41:30;;;;;;;10.45;3.95;;;;;;;27.00;33.99;102308.78;5098710;28;20037;-81
2023/06/07 07:44:02;;;;;;;11.23;3.97;;;;;;;26.81;34.08;102304.91;5093071;28;20036;-80
2023/06/07 07:46:30;;;;;;;9.05;4.07;;;;;;;25.30;36.99;102301.13;5096914;28;20035;-82
2023/06/07 07:48:56;;;;;;;9.88;3.97;;;;;;;25.60;35.78;102303.97;5099310;28;20062;-82
2023/06/07 07:51:27;;;;;;;15.45;4.18;;;;;;;24.59;37.67;102309.00;5081522;28;20032;-82
2023/06/07 07:53:56;;;;;;;14.10;4.28;;;;;;;24.57;37.71;102315.28;5080355;28;20032;-80
2023/06/07 07:56:22;;;;;;;9.85;4.05;;;;;;;24.97;37.58;102305.50;5082989;28;20052;-81
2023/06/07 07:58:49;;;;;;;11.13;3.75;;;;;;;24.67;38.39;102307.03;5100895;28;20052;-81
2023/06/07 08:01:16;;;;;;;16.92;5.10;;;;;;;24.15;39.44;102309.91;5099623;28;20036;-82
2023/06/07 08:03:42;;;;;;;12.35;4.00;;;;;;;24.10;39.21;102313.56;5100329;28;20020;-80
2023/06/07 08:06:14;;;;;;;13.18;4.40;;;;;;;24.14;39.61;102308.16;5098860;28;20025;-80
2023/06/07 08:08:46;;;;;;;13.32;4.38;;;;;;;24.39;38.58;102313.91;5114873;28;20032;-80
2023/06/07 08:11:27;;;;;;;10.18;3.95;;;;;;;25.51;37.26;102306.81;5101360;28;20024;-81
2023/06/07 08:13:55;;;;;;;8.18;3.80;;;;;;;26.71;35.05;102314.16;5096792;28;20055;-81
2023/06/07 08:16:20;;;;;;;13.18;3.67;;;;;;;26.96;34.51;102310.66;5075472;28;20020;-80
2023/06/07 08:19:16;;;;;;;14.57;4.10;;;;;;;27.40;32.77;102302.97;5090949;28;20078;-81
2023/06/07 08:21:47;;;;;;;9.50;3.85;;;;;;;27.15;33.67;102310.94;5093803;28;20056;-83
2023/06/07 08:24:17;;;;;;;11.00;3.75;;;;;;;27.03;33.76;102304.19;5079978;28;20049;-81
2023/06/07 08:26:45;;;;;;;10.30;4.00;;;;;;;27.41;32.96;102305.59;5080541;28;20025;-81
2023/06/07 08:29:13;;;;;;;11.23;4.28;;;;;;;27.27;32.74;102301.63;5086896;28;20085;-81
2023/06/07 08:31:45;;;;;;;13.07;4.70;;;;;;;26.13;35.67;102297.13;5089413;28;20036;-81
2023/06/07 08:34:10;;;;;;;12.35;4.25;;;;;;;26.93;34.40;102296.53;5084085;28;20028;-81
2023/06/07 08:36:38;;;;;;;10.45;3.90;;;;;;;26.51;35.12;102294.25;5082525;28;20052;-81
2023/06/07 08:39:12;;;;;;;8.95;4.22;;;;;;;25.23;36.39;102290.66;5079682;28;20058;-80
2023/06/07 08:41:39;;;;;;;14.18;4.90;;;;;;;24.24;39.73;102300.88;5075926;28;20574;-81
2023/06/07 08:44:04;;;;;;;15.70;5.40;;;;;;;22.72;42.80;102295.50;5077292;28;20035;-81
2023/06/07 08:46:32;;;;;;;13.15;4.90;;;;;;;22.94;43.11;102296.94;5076196;28;20036;-80
2023/06/07 08:49:02;;;;;;;13.18;5.30;;;;;;;23.10;42.25;102294.06;5077441;28;20581;-80
2023/06/07 08:51:28;;;;;;;13.73;4.97;;;;;;;23.28;42.39;102302.63;5076432;28;20064;-79
2023/06/07 08:54:02;;;;;;;13.35;5.32;;;;;;;23.04;41.66;102287.06;5086833;22;20048;-47
2023/06/07 08:56:32;;;;;;;12.27;4.78;;;;;;;23.20;42.00;102299.19;5069286;28;20111;-47
2023/06/07 08:58:57;;;;;;;11.00;5.30;;;;;;;22.67;42.57;102305.31;5068897;28;20067;-45
2023/06/07 09:01:23;;;;;;;13.43;4.93;;;;;;;22.83;41.89;102312.19;5070027;28;20048;-45
2023/06/07 09:03:52;;;;;;;11.73;5.32;;;;;;;23.03;41.85;102303.91;5068941;28;20078;-46
2023/06/07 09:06:22;;;;;;;11.13;4.70;;;;;;;23.35;41.69;102296.31;5070005;28;20502;-49
2023/06/07 09:08:48;;;;;;;10.30;4.72;;;;;;;23.42;40.98;102297.94;5068675;28;20033;-48
2023/06/07 09:11:16;;;;;;;11.98;4.95;;;;;;;22.97;41.12;102293.38;5069585;28;20107;-46
2023/06/07 09:13:42;;;;;;;11.85;5.32;;;;;;;23.02;41.37;102302.16;5064592;28;20045;-46
2023/06/07 09:16:11;;;;;;;12.38;5.10;;;;;;;23.16;42.18;102304.59;5049880;28;20029;-49
2023/06/07 09:18:53;;;;;;;12.45;5.07;;;;;;;23.54;41.38;102307.53;5048708;28;20044;-48
2023/06/07 09:21:29;;;;;;;15.13;5.68;;;;;;;23.08;41.65;102309.16;5058321;28;20033;-47
2023/06/07 09:23:57;;;;;;;13.75;5.65;;;;;;;22.54;43.33;102303.72;5068460;28;20037;-47
2023/06/07 09:26:23;;;;;;;14.30;5.43;;;;;;;23.20;41.55;102307.19;5069485;28;20047;-47
2023/06/07 09:28:49;;;;;;;12.10;5.32;;;;;;;22.93;41.63;102307.63;5068723;28;20029;-45
2023/06/07 09:31:36;;;;;;;11.70;5.57;;;;;;;22.71;41.64;102301.69;5064951;28;20029;-49
2023/06/07 09:34:21;;;;;;;14.85;5.43;;;;;;;22.53;42.38;102308.16;5028045;28;20041;-47
2023/06/07 09:36:51;;;;;;;12.73;5.68;;;;;;;22.82;43.09;102301.56;5046030;28;20063;-45
2023/06/07 09:39:30;;;;;;;13.45;6.10;;;;;;;22.60;42.84;102293.00;5058056;28;20032;-47
2023/06/07 09:41:57;;;;;;;12.00;5.85;;;;;;;22.49;43.61;102294.94;5066810;28;20490;-47
2023/06/07 09:44:30;;;;;;;14.70;6.53;;;;;;;21.88;44.82;102286.78;5049077;28;20108;-45
2023/06/07 09:46:56;;;;;;;15.80;6.13;;;;;;;22.63;43.80;102291.16;5048648;28;20029;-48
2023/06/07 09:49:26;;;;;;;14.32;5.82;;;;;;;22.58;43.54;102290.34;5049481;28;20128;-48
2023/06/07 09:51:52;;;;;;;13.77;6.15;;;;;;;22.79;43.20;102291.00;5049291;28;20029;-45
2023/06/07 09:54:19;;;;;;;12.35;5.60;;;;;;;23.14;42.43;102283.34;5011429;28;1078384;-49
2023/06/07 09:56:45;;;;;;;14.27;6.10;;;;;;;23.40;41.62;102282.91;5049526;28;20029;-45
2023/06/07 09:59:13;;;;;;;11.60;5.65;;;;;;;23.37;42.19;102281.16;5050288;28;20047;-45
2023/06/07 10:01:42;;;;;;;14.73;6.00;;;;;;;23.67;40.40;102286.88;5049448;28;20037;-48
2023/06/07 10:04:08;;;;;;;14.25;5.85;;;;;;;23.61;40.72;102281.66;5049331;28;20037;-41
2023/06/07 10:06:38;;;;;;;12.65;5.90;;;;;;;23.76;40.77;102273.41;5049125;28;20129;-46
2023/06/07 10:09:05;;;;;;;12.80;5.63;;;;;;;23.60;40.79;102277.28;5050160;28;20037;-46
2023/06/07 10:11:32;;;;;;;14.25;5.78;;;;;;;23.79;40.10;102276.88;5048714;28;20041;-51
2023/06/07 10:14:06;;;;;;;15.70;6.22;;;;;;;23.97;39.79;102280.09;5048918;28;20499;-45
2023/06/07 10:16:35;;;;;;;12.45;6.18;;;;;;;23.86;40.45;102280.28;5049423;28;20111;-45
2023/06/07 10:19:06;;;;;;;18.70;6.63;;;;;;;23.86;40.53;102275.84;5048044;28;20083;-47
2023/06/07 10:21:34;;;;;;;11.02;5.68;;;;;;;24.19;40.94;102271.66;5048704;28;20059;-42
2023/06/07 10:24:06;;;;;;;11.48;6.00;;;;;;;23.48;40.97;102280.16;5048863;28;20041;-45
2023/06/07 10:27:02;;;;;;;11.43;5.68;;;;;;;23.51;40.87;102272.09;5049020;28;20245;-48
2023/06/07 10:29:34;;;;;;;10.75;5.88;;;;;;;24.05;40.47;102275.47;5026454;28;20541;-47
2023/06/07 10:32:26;;;;;;;14.82;5.90;;;;;;;24.08;40.41;102284.31;5040167;28;20033;-46
2023/06/07 10:34:54;;;;;;;10.88;5.35;;;;;;;23.99;41.49;102276.50;5048263;28;20029;-47
2023/06/07 10:37:20;;;;;;;19.50;5.88;;;;;;;24.32;39.50;102269.63;5049320;28;20028;-45
2023/06/07 10:39:46;;;;;;;12.88;5.80;;;;;;;24.02;40.19;102271.13;5048713;28;20040;-46
2023/06/07 10:42:12;;;;;;;17.45;6.35;;;;;;;24.12;39.41;102258.47;5049145;28;20029;-45
2023/06/07 10:44:37;;;;;;;18.85;6.30;;;;;;;24.27;39.72;102258.19;5048129;28;20037;-47
2023/06/07 10:47:21;;;;;;;11.48;5.30;;;;;;;24.81;39.35;102256.06;5049069;28;20039;-46
2023/06/07 10:49:47;;;;;;;14.88;6.30;;;;;;;24.89;39.54;102255.88;5048326;28;20037;-48
2023/06/07 10:52:15;;;;;;;11.27;5.32;;;;;;;24.81;38.72;102249.84;5029932;28;20542;-47
2023/06/07 10:54:41;;;;;;;12.25;5.78;;;;;;;24.76;39.18;102235.75;5048135;28;20132;-47
2023/06/07 10:57:07;;;;;;;13.57;5.88;;;;;;;24.86;38.73;102242.59;5049169;28;20114;-49
2023/06/07 10:59:32;;;;;;;14.20;6.35;;;;;;;24.94;38.94;102240.66;5048408;28;20507;-50
2023/06/07 11:02:20;;;;;;;15.90;7.07;;;;;;;24.67;38.98;102236.84;5048003;28;20040;-43
2023/06/07 11:04:53;;;;;;;10.40;5.47;;;;;;;25.18;38.76;102236.50;5047041;28;20033;-47
2023/06/07 11:07:23;;;;;;;14.25;6.80;;;;;;;24.76;39.17;102236.63;5049355;28;20036;-45
2023/06/07 11:10:10;;;;;;;11.05;5.97;;;;;;;25.39;37.94;102239.47;5047307;28;20047;-46
2023/06/07 11:12:36;;;;;;;11.93;6.03;;;;;;;25.37;38.84;102240.44;5048704;28;20045;-47
2023/06/07 11:15:16;;;;;;;13.20;6.07;;;;;;;25.01;38.66;102235.13;5048760;28;20029;-47
2023/06/07 11:17:53;;;;;;;15.27;5.93;;;;;;;25.01;38.93;102237.78;5048777;28;20438;-45
2023/06/07 11:20:50;;;;;;;20.70;6.85;;;;;;;24.83;39.52;102238.22;5049155;28;20372;-47
2023/06/07 11:23:29;;;;;;;10.68;6.00;;;;;;;25.06;38.66;102229.69;5036379;28;20399;-50
2023/06/07 11:26:08;;;;;;;13.93;7.13;;;;;;;25.33;36.81;102236.09;5048931;28;20025;-46